sensor_id;sensor_type;location;lat;lon;timestamp;pressure;altitude;pressure_sealevel;temperature;humidity
49729;BME280;66333;49.798;10.968;2023-02-26T00:01:20;97573.28;;;6.81;66.21
49729;BME280;66333;49.798;10.968;2023-02-26T00:03:48;97580.13;;;6.82;65.91
49729;BME280;66333;49.798;10.968;2023-02-26T00:06:15;97575.88;;;6.81;66.03
49729;BME280;66333;49.798;10.968;2023-02-26T00:08:41;97582.88;;;6.80;66.31
49729;BME280;66333;49.798;10.968;2023-02-26T00:11:09;97575.22;;;6.78;66.13
49729;BME280;66333;49.798;10.968;2023-02-26T00:13:37;97575.22;;;6.78;66.04
49729;BME280;66333;49.798;10.968;2023-02-26T00:16:11;97583.03;;;6.78;65.98
49729;BME280;66333;49.798;10.968;2023-02-26T00:18:39;97581.41;;;6.77;66.30
49729;BME280;66333;49.798;10.968;2023-02-26T00:21:08;97590.03;;;6.78;65.98
49729;BME280;66333;49.798;10.968;2023-02-26T00:23:40;97587.56;;;6.76;65.85
49729;BME280;66333;49.798;10.968;2023-02-26T00:26:06;97597.19;;;6.76;65.83
49729;BME280;66333;49.798;10.968;2023-02-26T00:28:33;97591.00;;;6.77;65.65
49729;BME280;66333;49.798;10.968;2023-02-26T00:31:00;97598.00;;;6.76;65.92
49729;BME280;66333;49.798;10.968;2023-02-26T00:33:27;97609.38;;;6.75;66.23
49729;BME280;66333;49.798;10.968;2023-02-26T00:35:57;97606.78;;;6.75;66.06
49729;BME280;66333;49.798;10.968;2023-02-26T00:38:31;97603.47;;;6.73;65.85
49729;BME280;66333;49.798;10.968;2023-02-26T00:41:00;97606.78;;;6.75;65.78
49729;BME280;66333;49.798;10.968;2023-02-26T00:43:26;97607.03;;;6.72;65.75
49729;BME280;66333;49.798;10.968;2023-02-26T00:46:02;97617.31;;;6.74;65.52
49729;BME280;66333;49.798;10.968;2023-02-26T00:48:42;97614.19;;;6.70;65.86
49729;BME280;66333;49.798;10.968;2023-02-26T00:51:18;97614.84;;;6.72;65.65
49729;BME280;66333;49.798;10.968;2023-02-26T00:53:52;97614.19;;;6.70;65.44
49729;BME280;66333;49.798;10.968;2023-02-26T00:56:22;97616.13;;;6.68;65.80
49729;BME280;66333;49.798;10.968;2023-02-26T00:58:48;97607.34;;;6.69;65.49
49729;BME280;66333;49.798;10.968;2023-02-26T01:01:14;97605.97;;;6.65;65.93
49729;BME280;66333;49.798;10.968;2023-02-26T01:03:41;97609.28;;;6.67;65.92
49729;BME280;66333;49.798;10.968;2023-02-26T01:06:09;97608.47;;;6.67;65.57
49729;BME280;66333;49.798;10.968;2023-02-26T01:08:41;97618.72;;;6.68;65.65
49729;BME280;66333;49.798;10.968;2023-02-26T01:11:11;97619.94;;;6.64;66.05
49729;BME280;66333;49.798;10.968;2023-02-26T01:13:38;97612.16;;;6.64;65.78
49729;BME280;66333;49.798;10.968;2023-02-26T01:16:09;97610.22;;;6.66;65.65
49729;BME280;66333;49.798;10.968;2023-02-26T01:18:42;97607.59;;;6.66;65.64
49729;BME280;66333;49.798;10.968;2023-02-26T01:21:14;97611.19;;;6.65;65.50
49729;BME280;66333;49.798;10.968;2023-02-26T01:23:45;97605.16;;;6.65;65.92
49729;BME280;66333;49.798;10.968;2023-02-26T01:26:16;97603.38;;;6.65;65.60
49729;BME280;66333;49.798;10.968;2023-02-26T01:28:45;97602.84;;;6.62;65.39
49729;BME280;66333;49.798;10.968;2023-02-26T01:31:17;97604.63;;;6.61;65.63
49729;BME280;66333;49.798;10.968;2023-02-26T01:33:53;97603.81;;;6.61;65.55
49729;BME280;66333;49.798;10.968;2023-02-26T01:36:23;97609.84;;;6.61;65.59
49729;BME280;66333;49.798;10.968;2023-02-26T01:38:55;97608.88;;;6.62;65.07
49729;BME280;66333;49.798;10.968;2023-02-26T01:41:28;97612.75;;;6.58;65.41
49729;BME280;66333;49.798;10.968;2023-02-26T01:44:03;97611.78;;;6.59;65.72
49729;BME280;66333;49.798;10.968;2023-02-26T01:46:38;97610.97;;;6.59;65.50
49729;BME280;66333;49.798;10.968;2023-02-26T01:49:12;97610.13;;;6.58;65.31
49729;BME280;66333;49.798;10.968;2023-02-26T01:51:43;97615.34;;;6.58;65.65
49729;BME280;66333;49.798;10.968;2023-02-26T01:54:10;97622.44;;;6.56;65.43
49729;BME280;66333;49.798;10.968;2023-02-26T01:56:39;97626.00;;;6.55;65.69
49729;BME280;66333;49.798;10.968;2023-02-26T01:59:09;97631.22;;;6.55;65.48
49729;BME280;66333;49.798;10.968;2023-02-26T02:01:38;97624.09;;;6.57;65.48
49729;BME280;66333;49.798;10.968;2023-02-26T02:04:07;97628.63;;;6.55;65.54
49729;BME280;66333;49.798;10.968;2023-02-26T02:06:35;97624.38;;;6.54;65.55
49729;BME280;66333;49.798;10.968;2023-02-26T02:09:04;97633.16;;;6.53;65.68
49729;BME280;66333;49.798;10.968;2023-02-26T02:11:31;97638.38;;;6.53;65.30
49729;BME280;66333;49.798;10.968;2023-02-26T02:14:08;97635.91;;;6.52;65.35
49729;BME280;66333;49.798;10.968;2023-02-26T02:16:42;97633.44;;;6.50;65.38
49729;BME280;66333;49.798;10.968;2023-02-26T02:19:26;97632.47;;;6.51;65.41
49729;BME280;66333;49.798;10.968;2023-02-26T02:22:14;97634.38;;;6.49;65.62
49729;BME280;66333;49.798;10.968;2023-02-26T02:24:57;97630.97;;;6.48;65.47
49729;BME280;66333;49.798;10.968;2023-02-26T02:27:37;97636.31;;;6.47;65.73
49729;BME280;66333;49.798;10.968;2023-02-26T02:30:21;97637.00;;;6.49;65.21
49729;BME280;66333;49.798;10.968;2023-02-26T02:32:56;97637.28;;;6.46;65.33
49729;BME280;66333;49.798;10.968;2023-02-26T02:35:29;97638.91;;;6.47;65.44
49729;BME280;66333;49.798;10.968;2023-02-26T02:38:02;97643.44;;;6.45;65.54
49729;BME280;66333;49.798;10.968;2023-02-26T02:40:32;97653.88;;;6.45;65.25
49729;BME280;66333;49.798;10.968;2023-02-26T02:43:01;97649.63;;;6.44;65.47
49729;BME280;66333;49.798;10.968;2023-02-26T02:45:33;97663.31;;;6.46;65.33
49729;BME280;66333;49.798;10.968;2023-02-26T02:48:06;97657.56;;;6.42;65.55
49729;BME280;66333;49.798;10.968;2023-02-26T02:50:37;97657.56;;;6.42;65.32
49729;BME280;66333;49.798;10.968;2023-02-26T02:53:08;97659.47;;;6.40;65.77
49729;BME280;66333;49.798;10.968;2023-02-26T02:55:37;97658.41;;;6.43;65.15
49729;BME280;66333;49.798;10.968;2023-02-26T02:58:07;97658.66;;;6.40;65.39
49729;BME280;66333;49.798;10.968;2023-02-26T03:00:41;97663.88;;;6.40;65.53
49729;BME280;66333;49.798;10.968;2023-02-26T03:03:16;97673.19;;;6.42;65.09
49729;BME280;66333;49.798;10.968;2023-02-26T03:05:45;97668.25;;;6.39;65.58
49729;BME280;66333;49.798;10.968;2023-02-26T03:08:14;97676.88;;;6.40;65.35
49729;BME280;66333;49.798;10.968;2023-02-26T03:10:41;97673.31;;;6.41;65.08
49729;BME280;66333;49.798;10.968;2023-02-26T03:13:14;97681.41;;;6.38;65.45
49729;BME280;66333;49.798;10.968;2023-02-26T03:16:00;97682.38;;;6.37;65.55
49729;BME280;66333;49.798;10.968;2023-02-26T03:18:40;97686.59;;;6.38;65.30
49729;BME280;66333;49.798;10.968;2023-02-26T03:21:17;97689.22;;;6.38;65.07
49729;BME280;66333;49.798;10.968;2023-02-26T03:23:53;97690.16;;;6.37;65.39
49729;BME280;66333;49.798;10.968;2023-02-26T03:26:28;97680.06;;;6.34;65.48
49729;BME280;66333;49.798;10.968;2023-02-26T03:28:59;97681.03;;;6.33;65.53
49729;BME280;66333;49.798;10.968;2023-02-26T03:31:30;97689.75;;;6.32;65.60
49729;BME280;66333;49.798;10.968;2023-02-26T03:34:03;97697.56;;;6.32;65.47
49729;BME280;66333;49.798;10.968;2023-02-26T03:36:35;97687.97;;;6.32;65.63
49729;BME280;66333;49.798;10.968;2023-02-26T03:39:06;97690.72;;;6.31;65.14
49729;BME280;66333;49.798;10.968;2023-02-26T03:41:39;97695.78;;;6.32;65.45
49729;BME280;66333;49.798;10.968;2023-02-26T03:44:11;97701.13;;;6.31;65.33
49729;BME280;66333;49.798;10.968;2023-02-26T03:46:43;97707.28;;;6.30;65.48
49729;BME280;66333;49.798;10.968;2023-02-26T03:49:16;97708.25;;;6.29;65.73
49729;BME280;66333;49.798;10.968;2023-02-26T03:51:45;97713.47;;;6.29;65.25
49729;BME280;66333;49.798;10.968;2023-02-26T03:54:15;97712.78;;;6.27;65.21
49729;BME280;66333;49.798;10.968;2023-02-26T03:56:46;97715.38;;;6.27;65.19
49729;BME280;66333;49.798;10.968;2023-02-26T03:59:14;97717.03;;;6.28;65.12
49729;BME280;66333;49.798;10.968;2023-02-26T04:01:45;97716.34;;;6.26;65.35
49729;BME280;66333;49.798;10.968;2023-02-26T04:04:17;97722.53;;;6.25;65.57
49729;BME280;66333;49.798;10.968;2023-02-26T04:06:45;97718.94;;;6.26;65.45
49729;BME280;66333;49.798;10.968;2023-02-26T04:09:13;97725.78;;;6.27;65.49
49729;BME280;66333;49.798;10.968;2023-02-26T04:11:39;97725.78;;;6.27;64.99
49729;BME280;66333;49.798;10.968;2023-02-26T04:14:06;97726.91;;;6.24;65.38
49729;BME280;66333;49.798;10.968;2023-02-26T04:16:33;97734.56;;;6.26;65.61
49729;BME280;66333;49.798;10.968;2023-02-26T04:18:59;97736.34;;;6.25;65.53
49729;BME280;66333;49.798;10.968;2023-02-26T04:21:27;97736.47;;;6.23;65.48
49729;BME280;66333;49.798;10.968;2023-02-26T04:23:53;97741.66;;;6.23;65.52
49729;BME280;66333;49.798;10.968;2023-02-26T04:26:20;97736.47;;;6.23;65.47
49729;BME280;66333;49.798;10.968;2023-02-26T04:28:46;97740.84;;;6.23;65.25
49729;BME280;66333;49.798;10.968;2023-02-26T04:31:12;97746.88;;;6.23;65.13
49729;BME280;66333;49.798;10.968;2023-02-26T04:33:39;97753.03;;;6.22;65.41
49729;BME280;66333;49.798;10.968;2023-02-26T04:36:06;97751.13;;;6.25;65.19
49729;BME280;66333;49.798;10.968;2023-02-26T04:38:34;97755.63;;;6.22;65.45
49729;BME280;66333;49.798;10.968;2023-02-26T04:41:01;97764.41;;;6.21;65.43
49729;BME280;66333;49.798;10.968;2023-02-26T04:43:27;97755.63;;;6.22;65.24
49729;BME280;66333;49.798;10.968;2023-02-26T04:45:54;97769.59;;;6.21;65.08
49729;BME280;66333;49.798;10.968;2023-02-26T04:48:20;97767.66;;;6.23;65.32
49729;BME280;66333;49.798;10.968;2023-02-26T04:50:46;97773.16;;;6.20;65.57
49729;BME280;66333;49.798;10.968;2023-02-26T04:53:13;97772.47;;;6.18;65.46
49729;BME280;66333;49.798;10.968;2023-02-26T04:55:41;97773.44;;;6.17;65.09
49729;BME280;66333;49.798;10.968;2023-02-26T04:58:08;97776.72;;;6.19;65.40
49729;BME280;66333;49.798;10.968;2023-02-26T05:00:35;97780.00;;;6.21;65.15
49729;BME280;66333;49.798;10.968;2023-02-26T05:03:01;97778.38;;;6.20;65.26
49729;BME280;66333;49.798;10.968;2023-02-26T05:05:27;97780.28;;;6.18;65.36
49729;BME280;66333;49.798;10.968;2023-02-26T05:07:54;97784.81;;;6.16;65.13
49729;BME280;66333;49.798;10.968;2023-02-26T05:10:21;97784.66;;;6.18;65.54
49729;BME280;66333;49.798;10.968;2023-02-26T05:12:49;97785.78;;;6.15;65.25
49729;BME280;66333;49.798;10.968;2023-02-26T05:15:16;97787.41;;;6.16;65.20
49729;BME280;66333;49.798;10.968;2023-02-26T05:17:42;97792.63;;;6.16;65.10
49729;BME280;66333;49.798;10.968;2023-02-26T05:20:10;97799.59;;;6.16;65.05
49729;BME280;66333;49.798;10.968;2023-02-26T05:22:36;97802.06;;;6.17;64.96
49729;BME280;66333;49.798;10.968;2023-02-26T05:25:04;97797.81;;;6.16;65.06
49729;BME280;66333;49.798;10.968;2023-02-26T05:27:31;97801.38;;;6.15;65.14
49729;BME280;66333;49.798;10.968;2023-02-26T05:29:59;97806.59;;;6.15;65.33
49729;BME280;66333;49.798;10.968;2023-02-26T05:32:26;97802.31;;;6.14;65.39
49729;BME280;66333;49.798;10.968;2023-02-26T05:34:52;97813.69;;;6.13;65.16
49729;BME280;66333;49.798;10.968;2023-02-26T05:37:18;97809.28;;;6.14;65.13
49729;BME280;66333;49.798;10.968;2023-02-26T05:39:45;97816.13;;;6.15;65.09
49729;BME280;66333;49.798;10.968;2023-02-26T05:42:11;97809.28;;;6.14;65.18
49729;BME280;66333;49.798;10.968;2023-02-26T05:44:37;97815.31;;;6.14;65.07
49729;BME280;66333;49.798;10.968;2023-02-26T05:47:05;97817.91;;;6.14;64.71
49729;BME280;66333;49.798;10.968;2023-02-26T05:49:32;97820.53;;;6.14;65.06
49729;BME280;66333;49.798;10.968;2023-02-26T05:51:58;97819.84;;;6.12;64.62
49729;BME280;66333;49.798;10.968;2023-02-26T05:54:24;97824.06;;;6.13;65.16
49729;BME280;66333;49.798;10.968;2023-02-26T05:56:51;97831.88;;;6.13;64.94
49729;BME280;66333;49.798;10.968;2023-02-26T05:59:17;97844.06;;;6.13;65.26
49729;BME280;66333;49.798;10.968;2023-02-26T06:01:44;97850.09;;;6.13;65.10
49729;BME280;66333;49.798;10.968;2023-02-26T06:04:11;97846.81;;;6.11;64.92
49729;BME280;66333;49.798;10.968;2023-02-26T06:06:38;97848.44;;;6.12;64.77
49729;BME280;66333;49.798;10.968;2023-02-26T06:09:05;97853.78;;;6.11;65.38
49729;BME280;66333;49.798;10.968;2023-02-26T06:11:32;97858.03;;;6.12;65.08
49729;BME280;66333;49.798;10.968;2023-02-26T06:13:58;97857.22;;;6.11;64.87
49729;BME280;66333;49.798;10.968;2023-02-26T06:16:25;97863.22;;;6.12;64.97
49729;BME280;66333;49.798;10.968;2023-02-26T06:18:51;97872.81;;;6.11;65.03
49729;BME280;66333;49.798;10.968;2023-02-26T06:21:19;97875.28;;;6.13;64.81
49729;BME280;66333;49.798;10.968;2023-02-26T06:23:45;97870.50;;;6.08;65.22
49729;BME280;66333;49.798;10.968;2023-02-26T06:26:12;97881.59;;;6.10;64.87
49729;BME280;66333;49.798;10.968;2023-02-26T06:28:38;97873.91;;;6.09;65.00
49729;BME280;66333;49.798;10.968;2023-02-26T06:31:05;97888.41;;;6.11;63.70
49729;BME280;66333;49.798;10.968;2023-02-26T06:33:31;97889.38;;;6.10;63.50
49729;BME280;66333;49.798;10.968;2023-02-26T06:35:57;97889.38;;;6.10;63.70
49729;BME280;66333;49.798;10.968;2023-02-26T06:38:26;97895.53;;;6.09;63.93
49729;BME280;66333;49.798;10.968;2023-02-26T06:40:52;97903.59;;;6.06;64.10
49729;BME280;66333;49.798;10.968;2023-02-26T06:43:19;97911.41;;;6.06;64.05
49729;BME280;66333;49.798;10.968;2023-02-26T06:45:45;97911.66;;;5.93;62.38
49729;BME280;66333;49.798;10.968;2023-02-26T06:48:12;97922.06;;;6.03;61.95
49729;BME280;66333;49.798;10.968;2023-02-26T06:50:39;97927.28;;;6.03;62.00
49729;BME280;66333;49.798;10.968;2023-02-26T06:53:05;97939.31;;;6.04;62.59
49729;BME280;66333;49.798;10.968;2023-02-26T06:55:33;97940.97;;;6.05;63.16
49729;BME280;66333;49.798;10.968;2023-02-26T06:57:59;97944.38;;;6.06;63.16
49729;BME280;66333;49.798;10.968;2023-02-26T07:00:26;97941.25;;;6.02;63.68
49729;BME280;66333;49.798;10.968;2023-02-26T07:02:52;97947.53;;;6.00;63.92
49729;BME280;66333;49.798;10.968;2023-02-26T07:05:19;97948.59;;;5.97;63.69
49729;BME280;66333;49.798;10.968;2023-02-26T07:07:46;97959.00;;;5.97;64.03
49729;BME280;66333;49.798;10.968;2023-02-26T07:10:12;97968.59;;;5.97;63.83
49729;BME280;66333;49.798;10.968;2023-02-26T07:12:40;97959.00;;;5.97;63.93
49729;BME280;66333;49.798;10.968;2023-02-26T07:15:07;97972.28;;;5.94;63.98
49729;BME280;66333;49.798;10.968;2023-02-26T07:17:33;97975.56;;;5.96;64.10
49729;BME280;66333;49.798;10.968;2023-02-26T07:20:00;97975.56;;;5.96;64.19
49729;BME280;66333;49.798;10.968;2023-02-26T07:22:30;97986.09;;;5.94;64.34
49729;BME280;66333;49.798;10.968;2023-02-26T07:24:56;97983.34;;;5.96;64.24
49729;BME280;66333;49.798;10.968;2023-02-26T07:27:24;97983.34;;;5.96;64.17
49729;BME280;66333;49.798;10.968;2023-02-26T07:29:52;97991.16;;;5.96;63.56
49729;BME280;66333;49.798;10.968;2023-02-26T07:32:18;97986.91;;;5.95;63.94
49729;BME280;66333;49.798;10.968;2023-02-26T07:34:45;97995.53;;;5.96;64.41
49729;BME280;66333;49.798;10.968;2023-02-26T07:37:11;97998.28;;;5.94;64.32
49729;BME280;66333;49.798;10.968;2023-02-26T07:39:37;98005.25;;;5.93;64.64
49729;BME280;66333;49.798;10.968;2023-02-26T07:42:04;98006.06;;;5.94;64.41
49729;BME280;66333;49.798;10.968;2023-02-26T07:44:30;98011.97;;;5.96;64.12
49729;BME280;66333;49.798;10.968;2023-02-26T07:46:58;98012.91;;;5.95;63.86
49729;BME280;66333;49.798;10.968;2023-02-26T07:49:24;98016.22;;;5.97;63.89
49729;BME280;66333;49.798;10.968;2023-02-26T07:51:51;98016.22;;;5.97;64.03
49729;BME280;66333;49.798;10.968;2023-02-26T07:54:18;98024.00;;;5.97;63.86
49729;BME280;66333;49.798;10.968;2023-02-26T07:56:44;98023.19;;;5.97;64.17
49729;BME280;66333;49.798;10.968;2023-02-26T07:59:11;98035.22;;;5.98;64.02
49729;BME280;66333;49.798;10.968;2023-02-26T08:01:37;98027.56;;;5.96;64.10
49729;BME280;66333;49.798;10.968;2023-02-26T08:04:05;98038.94;;;5.95;64.36
49729;BME280;66333;49.798;10.968;2023-02-26T08:06:31;98038.09;;;5.94;63.94
49729;BME280;66333;49.798;10.968;2023-02-26T08:08:58;98042.47;;;5.94;64.02
49729;BME280;66333;49.798;10.968;2023-02-26T08:11:25;98044.13;;;5.95;64.17
49729;BME280;66333;49.798;10.968;2023-02-26T08:13:51;98052.88;;;5.94;63.62
49729;BME280;66333;49.798;10.968;2023-02-26T08:16:17;98052.88;;;5.94;64.20
49729;BME280;66333;49.798;10.968;2023-02-26T08:18:44;98052.63;;;5.97;63.70
49729;BME280;66333;49.798;10.968;2023-02-26T08:21:11;98054.25;;;5.98;63.82
49729;BME280;66333;49.798;10.968;2023-02-26T08:23:38;98055.94;;;5.99;63.40
49729;BME280;66333;49.798;10.968;2023-02-26T08:26:07;98063.00;;;5.97;63.49
49729;BME280;66333;49.798;10.968;2023-02-26T08:28:34;98059.72;;;5.95;63.43
49729;BME280;66333;49.798;10.968;2023-02-26T08:31:00;98063.97;;;5.96;63.77
49729;BME280;66333;49.798;10.968;2023-02-26T08:33:28;98063.00;;;5.97;63.27
49729;BME280;66333;49.798;10.968;2023-02-26T08:35:54;98063.97;;;5.96;63.17
49729;BME280;66333;49.798;10.968;2023-02-26T08:38:24;98063.16;;;5.96;63.34
49729;BME280;66333;49.798;10.968;2023-02-26T08:40:52;98078.63;;;5.97;63.08
49729;BME280;66333;49.798;10.968;2023-02-26T08:43:18;98081.13;;;5.99;63.40
49729;BME280;66333;49.798;10.968;2023-02-26T08:45:45;98082.19;;;5.96;63.71
49729;BME280;66333;49.798;10.968;2023-02-26T08:48:11;98080.53;;;5.95;63.22
49729;BME280;66333;49.798;10.968;2023-02-26T08:50:38;98083.81;;;5.97;63.70
49729;BME280;66333;49.798;10.968;2023-02-26T08:53:05;98094.22;;;5.97;63.22
49729;BME280;66333;49.798;10.968;2023-02-26T08:55:33;98098.47;;;5.98;63.34
49729;BME280;66333;49.798;10.968;2023-02-26T08:57:59;98109.81;;;5.97;63.44
49729;BME280;66333;49.798;10.968;2023-02-26T09:00:26;98107.50;;;5.94;63.53
49729;BME280;66333;49.798;10.968;2023-02-26T09:02:52;98115.28;;;5.94;63.29
49729;BME280;66333;49.798;10.968;2023-02-26T09:05:19;98116.94;;;5.95;63.34
49729;BME280;66333;49.798;10.968;2023-02-26T09:07:45;98125.00;;;5.92;63.00
49729;BME280;66333;49.798;10.968;2023-02-26T09:10:12;98125.97;;;5.91;63.42
49729;BME280;66333;49.798;10.968;2023-02-26T09:12:40;98128.16;;;5.96;62.88
49729;BME280;66333;49.798;10.968;2023-02-26T09:15:08;98133.50;;;5.94;62.69
49729;BME280;66333;49.798;10.968;2023-02-26T09:17:35;98127.47;;;5.93;62.96
49729;BME280;66333;49.798;10.968;2023-02-26T09:20:03;98132.53;;;5.95;63.16
49729;BME280;66333;49.798;10.968;2023-02-26T09:22:29;98142.13;;;5.94;63.24
49729;BME280;66333;49.798;10.968;2023-02-26T09:24:56;98146.50;;;5.94;63.04
49729;BME280;66333;49.798;10.968;2023-02-26T09:27:22;98153.34;;;5.95;62.78
49729;BME280;66333;49.798;10.968;2023-02-26T09:29:50;98146.38;;;5.96;62.65
49729;BME280;66333;49.798;10.968;2023-02-26T09:32:16;98156.91;;;5.94;62.37
49729;BME280;66333;49.798;10.968;2023-02-26T09:34:43;98160.31;;;5.94;62.66
49729;BME280;66333;49.798;10.968;2023-02-26T09:37:09;98177.44;;;5.97;62.61
49729;BME280;66333;49.798;10.968;2023-02-26T09:39:36;98174.16;;;5.95;62.75
49729;BME280;66333;49.798;10.968;2023-02-26T09:42:19;98179.34;;;5.95;62.60
49729;BME280;66333;49.798;10.968;2023-02-26T09:44:52;98173.31;;;5.94;62.70
49729;BME280;66333;49.798;10.968;2023-02-26T09:47:24;98177.69;;;5.94;62.88
49729;BME280;66333;49.798;10.968;2023-02-26T09:49:54;98189.75;;;5.95;62.71
49729;BME280;66333;49.798;10.968;2023-02-26T09:52:23;98194.94;;;5.95;62.18
49729;BME280;66333;49.798;10.968;2023-02-26T09:54:53;98193.31;;;5.94;62.30
49729;BME280;66333;49.798;10.968;2023-02-26T09:57:28;98205.63;;;5.92;62.53
49729;BME280;66333;49.798;10.968;2023-02-26T09:59:56;98202.06;;;5.93;62.32
49729;BME280;66333;49.798;10.968;2023-02-26T10:02:32;98207.25;;;5.93;62.39
49729;BME280;66333;49.798;10.968;2023-02-26T10:05:13;98207.25;;;5.93;62.54
49729;BME280;66333;49.798;10.968;2023-02-26T10:07:46;98207.25;;;5.93;62.89
49729;BME280;66333;49.798;10.968;2023-02-26T10:10:21;98216.00;;;5.92;62.19
49729;BME280;66333;49.798;10.968;2023-02-26T10:12:52;98207.00;;;5.96;62.27
49729;BME280;66333;49.798;10.968;2023-02-26T10:15:22;98214.38;;;5.91;62.03
49729;BME280;66333;49.798;10.968;2023-02-26T10:18:03;98219.03;;;5.97;62.05
49729;BME280;66333;49.798;10.968;2023-02-26T10:20:33;98215.25;;;6.01;62.57
49729;BME280;66333;49.798;10.968;2023-02-26T10:23:11;98221.78;;;5.96;62.45
49729;BME280;66333;49.798;10.968;2023-02-26T10:25:43;98232.06;;;5.97;62.10
49729;BME280;66333;49.798;10.968;2023-02-26T10:28:25;98229.72;;;5.94;61.98
49729;BME280;66333;49.798;10.968;2023-02-26T10:30:59;98226.16;;;5.95;62.19
49729;BME280;66333;49.798;10.968;2023-02-26T10:33:33;98240.13;;;5.94;61.80
49729;BME280;66333;49.798;10.968;2023-02-26T10:36:10;98245.31;;;5.94;61.36
49729;BME280;66333;49.798;10.968;2023-02-26T10:38:40;98235.16;;;5.91;61.70
49729;BME280;66333;49.798;10.968;2023-02-26T10:41:12;98241.88;;;5.93;61.36
49729;BME280;66333;49.798;10.968;2023-02-26T10:43:42;98240.38;;;5.91;61.41
49729;BME280;66333;49.798;10.968;2023-02-26T10:46:20;98243.66;;;5.93;61.78
49729;BME280;66333;49.798;10.968;2023-02-26T10:48:58;98250.50;;;5.94;61.46
49729;BME280;66333;49.798;10.968;2023-02-26T10:51:31;98255.47;;;5.97;61.02
49729;BME280;66333;49.798;10.968;2023-02-26T10:54:03;98251.91;;;5.98;60.87
49729;BME280;66333;49.798;10.968;2023-02-26T10:56:32;98249.44;;;5.97;60.60
49729;BME280;66333;49.798;10.968;2023-02-26T10:58:58;98263.25;;;5.97;61.23
49729;BME280;66333;49.798;10.968;2023-02-26T11:01:29;98250.03;;;6.00;60.59
49729;BME280;66333;49.798;10.968;2023-02-26T11:03:58;98258.53;;;6.02;60.49
49729;BME280;66333;49.798;10.968;2023-02-26T11:06:30;98248.94;;;6.03;60.21
49729;BME280;66333;49.798;10.968;2023-02-26T11:08:58;98258.78;;;5.99;60.62
49729;BME280;66333;49.798;10.968;2023-02-26T11:11:39;98262.06;;;6.01;60.79
49729;BME280;66333;49.798;10.968;2023-02-26T11:14:06;98268.09;;;6.02;60.63
49729;BME280;66333;49.798;10.968;2023-02-26T11:16:41;98285.94;;;6.06;61.16
49729;BME280;66333;49.798;10.968;2023-02-26T11:19:07;98267.03;;;6.04;60.82
49729;BME280;66333;49.798;10.968;2023-02-26T11:21:37;98284.53;;;6.02;61.72
49729;BME280;66333;49.798;10.968;2023-02-26T11:24:07;98266.59;;;5.99;60.71
49729;BME280;66333;49.798;10.968;2023-02-26T11:26:37;98277.00;;;5.99;60.55
49729;BME280;66333;49.798;10.968;2023-02-26T11:29:04;98277.00;;;5.99;61.32
49729;BME280;66333;49.798;10.968;2023-02-26T11:31:31;98283.72;;;6.02;60.71
49729;BME280;66333;49.798;10.968;2023-02-26T11:34:02;98277.44;;;6.04;60.08
49729;BME280;66333;49.798;10.968;2023-02-26T11:36:31;98274.13;;;6.02;60.24
49729;BME280;66333;49.798;10.968;2023-02-26T11:39:01;98270.56;;;6.03;60.00
49729;BME280;66333;49.798;10.968;2023-02-26T11:41:29;98267.28;;;6.01;60.65
49729;BME280;66333;49.798;10.968;2023-02-26T11:44:04;98272.22;;;6.04;60.67
49729;BME280;66333;49.798;10.968;2023-02-26T11:46:38;98273.03;;;6.05;60.41
49729;BME280;66333;49.798;10.968;2023-02-26T11:49:09;98274.94;;;6.03;60.74
49729;BME280;66333;49.798;10.968;2023-02-26T11:51:41;98270.84;;;6.00;59.86
49729;BME280;66333;49.798;10.968;2023-02-26T11:54:20;98281.25;;;6.00;60.72
49729;BME280;66333;49.798;10.968;2023-02-26T11:56:47;98276.03;;;6.00;60.48
49729;BME280;66333;49.798;10.968;2023-02-26T11:59:17;98274.13;;;6.02;60.19
49729;BME280;66333;49.798;10.968;2023-02-26T12:01:44;98274.94;;;6.03;60.61
49729;BME280;66333;49.798;10.968;2023-02-26T12:04:15;98285.63;;;6.00;60.62
49729;BME280;66333;49.798;10.968;2023-02-26T12:06:44;98273.31;;;6.02;60.08
49729;BME280;66333;49.798;10.968;2023-02-26T12:09:12;98276.03;;;6.00;59.86
49729;BME280;66333;49.798;10.968;2023-02-26T12:14:56;98272.22;;;6.04;60.08
49729;BME280;66333;49.798;10.968;2023-02-26T12:17:34;98270.56;;;6.03;60.01
49729;BME280;66333;49.798;10.968;2023-02-26T12:20:14;98284.28;;;6.05;59.59
49729;BME280;66333;49.798;10.968;2023-02-26T12:22:49;98277.69;;;6.01;59.77
49729;BME280;66333;49.798;10.968;2023-02-26T12:25:31;98270.84;;;6.00;59.71
49729;BME280;66333;49.798;10.968;2023-02-26T12:28:10;98269.19;;;5.99;60.66
49729;BME280;66333;49.798;10.968;2023-02-26T12:31:00;98270.84;;;6.00;59.84
49729;BME280;66333;49.798;10.968;2023-02-26T12:33:42;98266.47;;;6.01;59.59
49729;BME280;66333;49.798;10.968;2023-02-26T12:36:23;98270.00;;;6.00;59.39
49729;BME280;66333;49.798;10.968;2023-02-26T12:38:59;98264.56;;;6.03;59.38
49729;BME280;66333;49.798;10.968;2023-02-26T12:41:43;98264.56;;;6.03;59.50
49729;BME280;66333;49.798;10.968;2023-02-26T12:44:25;98279.06;;;6.05;59.33
49729;BME280;66333;49.798;10.968;2023-02-26T12:47:14;98274.13;;;6.02;59.50
49729;BME280;66333;49.798;10.968;2023-02-26T12:50:02;98294.13;;;6.02;59.97
49729;BME280;66333;49.798;10.968;2023-02-26T12:52:46;98275.78;;;6.03;59.36
49729;BME280;66333;49.798;10.968;2023-02-26T12:55:22;98265.38;;;6.03;59.26
49729;BME280;66333;49.798;10.968;2023-02-26T12:58:22;98273.66;;;6.08;59.25
49729;BME280;66333;49.798;10.968;2023-02-26T13:01:18;98270.56;;;6.03;59.24
49729;BME280;66333;49.798;10.968;2023-02-26T13:04:09;98281.81;;;6.04;59.50
49729;BME280;66333;49.798;10.968;2023-02-26T13:07:00;98271.41;;;6.04;59.40
49729;BME280;66333;49.798;10.968;2023-02-26T13:09:43;98274.69;;;6.06;58.97
49729;BME280;66333;49.798;10.968;2023-02-26T13:12:24;98277.44;;;6.04;59.19
49729;BME280;66333;49.798;10.968;2023-02-26T13:15:03;98275.78;;;6.03;59.43
49729;BME280;66333;49.798;10.968;2023-02-26T13:17:36;98272.47;;;6.01;59.93
49729;BME280;66333;49.798;10.968;2023-02-26T13:20:11;98276.88;;;6.01;59.78